Time;durP1;ratioP1;P1;durP2;ratioP2;P2;SDS_P1;SDS_P2;PMS_P1;PMS_P2;Temp;Humidity;BMP_temperature;BMP_pressure;BME280_temperature;BME280_humidity;BME280_pressure;Samples;Min_cycle;Max_cycle;Signal;HPM_P1;HPM_P2
2023/05/25 00:02:24;;;;;;;;;;;;;;;21.55;49.54;95932.53;10473915;28;1949;-67
2023/05/25 00:07:24;;;;;;;;;;;;;;;21.54;49.19;95938.84;10476283;28;1884;-67
2023/05/25 00:12:25;;;;;;;;;;;;;;;21.54;49.28;95938.84;10473093;28;1832;-67
2023/05/25 00:17:30;;;;;;;;;;;;;;;21.53;49.21;95942.56;10477262;28;1945;-68
2023/05/25 00:22:33;;;;;;;;;;;;;;;21.53;49.08;95945.19;10473794;28;2081;-67
2023/05/25 00:27:33;;;;;;;;;;;;;;;21.53;49.14;95947.84;10475007;28;2162;-67
2023/05/25 00:32:33;;;;;;;;;;;;;;;21.53;49.11;95936.50;10478501;28;2045;-67
2023/05/25 00:37:33;;;;;;;;;;;;;;;21.53;49.22;95939.13;10465399;28;1968;-67
2023/05/25 00:42:34;;;;;;;;;;;;;;;21.52;49.31;95934.91;10478976;28;4538;-68
2023/05/25 00:47:34;;;;;;;;;;;;;;;21.51;49.09;95928.06;10480622;28;2249;-68
2023/05/25 00:52:34;;;;;;;;;;;;;;;21.51;49.12;95918.31;10478072;28;2143;-67
2023/05/25 00:57:36;;;;;;;;;;;;;;;21.51;49.22;95912.25;10469588;28;1988;-68
2023/05/25 01:02:36;;;;;;;;;;;;;;;21.51;48.91;95917.50;10484840;28;1975;-67
2023/05/25 01:07:37;;;;;;;;;;;;;;;21.49;49.13;95917.81;10468164;28;2008;-68
2023/05/25 01:12:37;;;;;;;;;;;;;;;21.49;48.75;95923.06;10477193;28;1912;-67
2023/05/25 01:17:37;;;;;;;;;;;;;;;21.49;49.09;95923.06;10482323;28;1976;-69
2023/05/25 01:22:46;;;;;;;;;;;;;;;21.49;48.74;95927.56;10476859;28;2280;-68
2023/05/25 01:27:53;;;;;;;;;;;;;;;21.50;48.85;95931.75;10478547;28;2178;-68
2023/05/25 01:32:54;;;;;;;;;;;;;;;21.48;48.93;95918.84;10480092;28;1934;-67
2023/05/25 01:37:54;;;;;;;;;;;;;;;21.48;48.85;95913.56;10462761;28;1972;-67
2023/05/25 01:42:55;;;;;;;;;;;;;;;21.47;48.60;95919.13;10478127;28;4516;-67
2023/05/25 01:48:01;;;;;;;;;;;;;;;21.46;48.96;95923.59;10482952;28;2054;-67
2023/05/25 01:53:02;;;;;;;;;;;;;;;21.46;48.79;95931.53;10476776;28;2004;-67
2023/05/25 01:58:03;;;;;;;;;;;;;;;21.45;48.54;95927.28;10475547;28;1965;-67
2023/05/25 02:03:03;;;;;;;;;;;;;;;21.45;48.58;95939.72;10477736;28;1956;-67
2023/05/25 02:08:03;;;;;;;;;;;;;;;21.45;48.45;95929.16;10462507;28;2163;-67
2023/05/25 02:13:03;;;;;;;;;;;;;;;21.46;48.53;95930.72;10474936;28;1977;-68
2023/05/25 02:18:04;;;;;;;;;;;;;;;21.44;48.42;95917.81;10479084;28;1964;-68
2023/05/25 02:23:04;;;;;;;;;;;;;;;21.44;48.45;95911.75;10473890;28;1955;-67
2023/05/25 02:28:05;;;;;;;;;;;;;;;21.43;48.62;95920.75;10477044;28;1985;-68
2023/05/25 02:33:05;;;;;;;;;;;;;;;21.43;48.41;95921.50;10467475;28;1916;-68
2023/05/25 02:38:06;;;;;;;;;;;;;;;21.42;48.36;95908.59;10459164;28;1960;-67
2023/05/25 02:43:06;;;;;;;;;;;;;;;21.42;48.53;95911.25;10478655;28;4617;-67
2023/05/25 02:48:06;;;;;;;;;;;;;;;21.42;48.20;95919.16;10475520;28;1913;-67
2023/05/25 02:53:07;;;;;;;;;;;;;;;21.41;48.17;95912.31;10477093;28;2094;-67
2023/05/25 02:58:07;;;;;;;;;;;;;;;21.41;48.50;95905.16;10478940;28;1961;-67
2023/05/25 03:03:07;;;;;;;;;;;;;;;21.41;48.33;95909.69;10473861;28;1918;-67
2023/05/25 03:08:08;;;;;;;;;;;;;;;21.39;48.20;95903.91;10474597;28;1906;-66
2023/05/25 03:13:08;;;;;;;;;;;;;;;21.39;48.22;95904.66;10481403;28;2174;-68
2023/05/25 03:18:08;;;;;;;;;;;;;;;21.39;48.49;95912.56;10477784;28;1963;-68
2023/05/25 03:23:08;;;;;;;;;;;;;;;21.40;48.13;95916.00;10476027;28;1902;-66
2023/05/25 03:28:09;;;;;;;;;;;;;;;21.38;48.16;95913.66;10476666;28;1973;-66
2023/05/25 03:33:12;;;;;;;;;;;;;;;21.38;48.07;95918.13;10474322;28;1964;-66
2023/05/25 03:38:12;;;;;;;;;;;;;;;21.39;48.29;95911.81;10472732;28;2044;-67
2023/05/25 03:43:13;;;;;;;;;;;;;;;21.37;48.16;95913.94;10477320;28;4619;-68
2023/05/25 03:48:13;;;;;;;;;;;;;;;21.37;48.01;95921.84;10481488;28;1983;-68
2023/05/25 03:53:13;;;;;;;;;;;;;;;21.37;48.00;95927.13;10475687;28;1953;-67
2023/05/25 03:58:14;;;;;;;;;;;;;;;21.37;47.95;95921.84;10484570;28;1958;-68
2023/05/25 04:03:15;;;;;;;;;;;;;;;21.36;48.04;95928.16;10477046;28;1968;-68
2023/05/25 04:08:16;;;;;;;;;;;;;;;21.36;48.25;95936.88;10470494;28;2157;-68
2023/05/25 04:13:17;;;;;;;;;;;;;;;21.36;47.93;95936.06;10480573;28;1913;-68
2023/05/25 04:18:18;;;;;;;;;;;;;;;21.36;47.95;95936.06;10487744;28;1996;-68
2023/05/25 04:23:20;;;;;;;;;;;;;;;21.36;47.96;95946.63;10486535;28;1967;-68
2023/05/25 04:28:20;;;;;;;;;;;;;;;21.35;47.78;95945.06;10485172;28;1968;-68
2023/05/25 04:33:20;;;;;;;;;;;;;;;21.34;47.81;95944.25;10484592;28;1982;-68
2023/05/25 04:38:21;;;;;;;;;;;;;;;21.34;47.95;95946.91;10484877;28;1934;-68
2023/05/25 04:43:24;;;;;;;;;;;;;;;21.34;48.01;95935.56;10482764;28;4686;-68
2023/05/25 04:48:27;;;;;;;;;;;;;;;21.35;48.02;95945.06;10480321;28;2195;-67
2023/05/25 04:53:27;;;;;;;;;;;;;;;21.35;47.85;95947.69;10480392;28;1929;-68
2023/05/25 04:58:32;;;;;;;;;;;;;;;21.33;47.76;95950.59;10484952;28;1985;-68
2023/05/25 05:03:32;;;;;;;;;;;;;;;21.33;47.79;95950.59;10480788;28;2092;-68
2023/05/25 05:08:32;;;;;;;;;;;;;;;21.33;47.84;95958.50;10479169;28;1949;-68
2023/05/25 05:13:33;;;;;;;;;;;;;;;21.33;47.67;95970.91;10486118;28;1957;-68
2023/05/25 05:18:33;;;;;;;;;;;;;;;21.32;47.88;95964.84;10481282;28;2013;-64
2023/05/25 05:23:33;;;;;;;;;;;;;;;21.32;47.56;95974.59;10477706;28;1922;-66
2023/05/25 05:28:34;;;;;;;;;;;;;;;21.29;47.26;95970.66;10479700;28;1928;-68
2023/05/25 05:33:35;;;;;;;;;;;;;;;21.29;47.46;95983.06;10473878;28;1962;-68
2023/05/25 05:38:35;;;;;;;;;;;;;;;21.29;47.08;95977.78;10476120;28;1961;-69
2023/05/25 05:43:35;;;;;;;;;;;;;;;21.26;46.97;95994.13;10480112;28;4614;-68
2023/05/25 05:48:36;;;;;;;;;;;;;;;21.25;46.73;95992.53;10478713;28;2032;-68
2023/05/25 05:53:36;;;;;;;;;;;;;;;21.22;46.29;95990.47;10473605;28;2289;-68
2023/05/25 05:58:36;;;;;;;;;;;;;;;21.19;46.68;95989.16;10482318;28;1886;-66
2023/05/25 06:03:37;;;;;;;;;;;;;;;21.19;46.38;95993.63;10477255;28;2179;-68
2023/05/25 06:08:39;;;;;;;;;;;;;;;21.16;46.10;95992.34;10477009;28;2060;-69
2023/05/25 06:13:40;;;;;;;;;;;;;;;21.15;45.98;95993.41;10477857;28;1922;-69
2023/05/25 06:18:40;;;;;;;;;;;;;;;21.13;45.86;95998.16;10482650;28;1913;-69
2023/05/25 06:23:40;;;;;;;;;;;;;;;21.12;45.84;96004.50;10475214;28;1998;-68
2023/05/25 06:28:41;;;;;;;;;;;;;;;21.13;46.35;96007.91;10481806;28;1896;-66
2023/05/25 06:33:41;;;;;;;;;;;;;;;21.14;46.46;96002.38;10476960;28;1949;-68
2023/05/25 06:38:41;;;;;;;;;;;;;;;21.15;46.71;96011.84;10460840;28;1921;-69
2023/05/25 06:43:42;;;;;;;;;;;;;;;21.17;46.75;96016.84;10468265;28;4365;-70
2023/05/25 06:48:42;;;;;;;;;;;;;;;21.19;46.98;96020.00;10475474;28;1904;-68
2023/05/25 06:53:43;;;;;;;;;;;;;;;21.19;47.04;96027.91;10455647;28;1943;-68
2023/05/25 06:58:43;;;;;;;;;;;;;;;21.20;47.03;96025.03;10460401;28;1994;-69
2023/05/25 07:03:44;;;;;;;;;;;;;;;21.21;47.15;96026.59;10467688;28;2015;-68
2023/05/25 07:08:44;;;;;;;;;;;;;;;21.23;47.50;96028.94;10472548;28;1920;-68
2023/05/25 07:13:44;;;;;;;;;;;;;;;21.22;47.51;96025.53;10467752;28;1914;-68
2023/05/25 07:18:45;;;;;;;;;;;;;;;21.23;47.30;96027.09;10469235;28;1946;-70
2023/05/25 07:23:45;;;;;;;;;;;;;;;21.24;47.47;96035.81;10472381;28;1914;-69
2023/05/25 07:28:45;;;;;;;;;;;;;;;21.23;47.28;96032.38;10469975;28;1977;-70
2023/05/25 07:33:46;;;;;;;;;;;;;;;21.24;47.31;96038.44;10474072;28;2013;-70
2023/05/25 07:38:46;;;;;;;;;;;;;;;21.24;47.54;96044.50;10468086;28;2294;-68
2023/05/25 07:43:46;;;;;;;;;;;;;;;21.25;47.39;96045.28;10479875;28;4543;-68
2023/05/25 07:48:46;;;;;;;;;;;;;;;21.25;47.66;96051.34;10473829;28;2096;-69
2023/05/25 07:53:47;;;;;;;;;;;;;;;21.25;47.83;96047.91;10475311;28;2128;-68
2023/05/25 07:58:47;;;;;;;;;;;;;;;21.26;47.66;96066.13;10474181;28;2249;-68
2023/05/25 08:03:48;;;;;;;;;;;;;;;21.26;47.67;96060.84;10477805;28;2144;-68
2023/05/25 08:08:49;;;;;;;;;;;;;;;21.27;47.62;96059.00;10472383;28;2167;-68
2023/05/25 08:13:50;;;;;;;;;;;;;;;21.28;47.64;96071.13;10452267;28;2222;-68
2023/05/25 08:18:50;;;;;;;;;;;;;;;21.28;47.66;96076.38;10480431;28;2215;-67
2023/05/25 08:23:51;;;;;;;;;;;;;;;21.26;47.81;96074.03;10473779;28;2071;-67
2023/05/25 08:28:51;;;;;;;;;;;;;;;21.27;47.73;96077.47;10479680;28;2143;-69
2023/05/25 08:33:51;;;;;;;;;;;;;;;21.29;47.82;96085.91;10477832;28;2067;-67
2023/05/25 08:38:52;;;;;;;;;;;;;;;21.29;47.90;96086.66;10478607;28;2242;-68
2023/05/25 08:43:52;;;;;;;;;;;;;;;21.29;47.76;96083.25;10473711;28;4640;-67
2023/05/25 08:48:52;;;;;;;;;;;;;;;21.29;47.75;96081.38;10488897;28;2170;-67
2023/05/25 08:53:52;;;;;;;;;;;;;;;21.30;47.49;96085.63;10479676;28;1963;-68
2023/05/25 08:58:56;;;;;;;;;;;;;;;21.29;47.83;96096.44;10466752;28;1954;-68
2023/05/25 09:03:57;;;;;;;;;;;;;;;21.31;48.00;96099.59;10474531;28;2183;-69
2023/05/25 09:08:57;;;;;;;;;;;;;;;21.32;48.17;96109.88;10483025;28;1980;-69
2023/05/25 09:13:57;;;;;;;;;;;;;;;21.31;48.26;96105.63;10475618;28;2107;-70
2023/05/25 09:18:58;;;;;;;;;;;;;;;21.32;48.33;96107.22;10464847;28;1948;-69
2023/05/25 09:23:58;;;;;;;;;;;;;;;21.34;48.24;96112.22;10482839;28;1929;-69
2023/05/25 09:28:59;;;;;;;;;;;;;;;21.34;48.37;96117.50;10476187;28;1869;-69
2023/05/25 09:33:59;;;;;;;;;;;;;;;21.34;48.41;96115.66;10465018;28;1906;-70
2023/05/25 09:39:00;;;;;;;;;;;;;;;21.34;48.46;96130.69;10459165;28;1929;-68
2023/05/25 09:44:00;;;;;;;;;;;;;;;21.35;48.71;96145.47;10460375;28;4567;-68
2023/05/25 09:49:05;;;;;;;;;;;;;;;21.33;48.38;96134.41;10483661;28;2135;-68
2023/05/25 09:54:07;;;;;;;;;;;;;;;21.33;48.18;96137.03;10478064;28;1908;-67
2023/05/25 09:59:07;;;;;;;;;;;;;;;21.32;48.30;96133.59;10479114;28;1813;-68
2023/05/25 10:04:08;;;;;;;;;;;;;;;21.33;48.55;96131.75;10462145;28;1910;-68
2023/05/25 10:09:08;;;;;;;;;;;;;;;21.34;48.64;96141.22;10475684;28;1837;-67
2023/05/25 10:14:08;;;;;;;;;;;;;;;21.34;48.77;96134.13;10474826;28;1824;-67
2023/05/25 10:19:10;;;;;;;;;;;;;;;21.36;49.13;96141.75;10459568;28;1894;-67
2023/05/25 10:24:33;;;;;;;;;;;;;;;21.37;49.68;96143.34;10473827;28;1973;-67
2023/05/25 10:29:34;;;;;;;;;;;;;;;21.37;49.99;96138.06;10469985;28;1819;-67
2023/05/25 10:34:34;;;;;;;;;;;;;;;21.38;50.02;96131.72;10458844;28;1899;-67
2023/05/25 10:39:34;;;;;;;;;;;;;;;21.40;49.86;96142.78;10462378;28;1915;-67
2023/05/25 10:44:35;;;;;;;;;;;;;;;21.40;49.85;96137.53;10478525;28;4554;-66
2023/05/25 10:49:50;;;;;;;;;;;;;;;21.40;49.89;96140.16;10479323;28;1496;-67
2023/05/25 10:54:50;;;;;;;;;;;;;;;21.41;50.11;96141.75;10480733;28;1551;-67
2023/05/25 10:59:53;;;;;;;;;;;;;;;21.42;49.91;96140.69;10461884;28;1829;-67
2023/05/25 11:05:12;;;;;;;;;;;;;;;21.40;50.09;96132.25;10443349;28;2028;-68
2023/05/25 11:10:13;;;;;;;;;;;;;;;21.41;49.88;96139.88;10476165;28;1875;-67
2023/05/25 11:15:14;;;;;;;;;;;;;;;21.40;50.14;96134.88;10474392;28;2109;-67
2023/05/25 11:20:22;;;;;;;;;;;;;;;21.42;50.05;96140.69;10481572;28;1832;-68
2023/05/25 11:25:35;;;;;;;;;;;;;;;21.41;50.07;96134.59;10449273;28;1914;-67
2023/05/25 11:30:38;;;;;;;;;;;;;;;21.42;49.83;96135.41;10469483;28;1873;-68
2023/05/25 11:35:38;;;;;;;;;;;;;;;21.41;49.68;96131.97;10470172;28;1899;-68
2023/05/25 11:40:38;;;;;;;;;;;;;;;21.41;49.75;96131.19;10455899;28;4578;-68
2023/05/25 11:45:38;;;;;;;;;;;;;;;21.41;49.58;96118.00;10468253;28;1993;-68
2023/05/25 11:50:39;;;;;;;;;;;;;;;21.41;49.74;96120.66;10469028;28;1824;-68
2023/05/25 11:55:41;;;;;;;;;;;;;;;21.41;49.51;96116.16;10470290;28;2263;-66
2023/05/25 12:00:41;;;;;;;;;;;;;;;21.41;49.85;96110.09;10446212;28;1811;-69
2023/05/25 12:05:42;;;;;;;;;;;;;;;21.40;49.87;96103.25;10473537;28;1902;-68
2023/05/25 12:10:50;;;;;;;;;;;;;;;21.41;49.55;96107.47;10473966;28;1871;-66
2023/05/25 12:15:51;;;;;;;;;;;;;;;21.41;49.56;96107.47;10470010;28;1949;-68
2023/05/25 12:20:51;;;;;;;;;;;;;;;21.39;49.51;96099.81;10484404;28;1839;-66
2023/05/25 12:26:10;;;;;;;;;;;;;;;21.41;49.55;96102.19;10474514;28;1953;-67
2023/05/25 12:31:20;;;;;;;;;;;;;;;21.41;49.52;96102.97;10480802;28;1893;-66
2023/05/25 12:36:43;;;;;;;;;;;;;;;21.42;49.54;96103.75;10477862;28;2190;-67
2023/05/25 12:41:43;;;;;;;;;;;;;;;21.42;49.72;96104.56;10472379;28;4534;-68
2023/05/25 12:46:44;;;;;;;;;;;;;;;21.42;49.49;96096.63;10477662;28;1963;-67
2023/05/25 12:51:44;;;;;;;;;;;;;;;21.42;49.67;96103.75;10464267;28;1856;-66
2023/05/25 12:56:54;;;;;;;;;;;;;;;21.44;49.53;96091.09;10464717;28;1973;-67
2023/05/25 13:01:54;;;;;;;;;;;;;;;21.43;49.47;96079.75;10463516;28;1748;-66
2023/05/25 13:06:55;;;;;;;;;;;;;;;21.44;49.49;96080.53;10482190;28;1965;-66
2023/05/25 13:11:55;;;;;;;;;;;;;;;21.43;49.59;96077.09;10476366;28;1871;-66
2023/05/25 13:16:56;;;;;;;;;;;;;;;21.43;49.46;96085.00;10475337;28;1998;-67
2023/05/25 13:21:56;;;;;;;;;;;;;;;21.45;49.57;96071.59;10472250;28;1899;-66
2023/05/25 13:26:56;;;;;;;;;;;;;;;21.45;49.52;96066.31;10474732;28;1949;-67
2023/05/25 13:31:57;;;;;;;;;;;;;;;21.45;49.46;96063.66;10477934;28;1997;-68
2023/05/25 13:36:57;;;;;;;;;;;;;;;21.45;49.66;96066.31;10464682;28;1934;-69
2023/05/25 13:41:58;;;;;;;;;;;;;;;21.44;49.57;96068.16;10472043;28;4550;-70
2023/05/25 13:46:58;;;;;;;;;;;;;;;21.45;49.37;96061.03;10472201;28;2188;-68
2023/05/25 13:51:58;;;;;;;;;;;;;;;21.45;49.47;96059.16;10471684;28;1879;-68
2023/05/25 13:56:59;;;;;;;;;;;;;;;21.44;49.54;96059.44;10483979;28;1832;-70
2023/05/25 14:02:00;;;;;;;;;;;;;;;21.44;49.53;96049.69;10477778;28;1907;-69
2023/05/25 14:07:01;;;;;;;;;;;;;;;21.45;49.56;96056.53;10481685;28;1906;-69
2023/05/25 14:12:01;;;;;;;;;;;;;;;21.43;49.35;96048.09;10478444;28;1856;-70
2023/05/25 14:17:02;;;;;;;;;;;;;;;21.44;49.47;96054.16;10479583;28;1847;-69
2023/05/25 14:22:02;;;;;;;;;;;;;;;21.44;49.60;96038.34;10482025;28;1805;-70
2023/05/25 14:27:03;;;;;;;;;;;;;;;21.42;49.30;96038.63;10475242;28;2169;-69
2023/05/25 14:32:03;;;;;;;;;;;;;;;21.43;49.51;96042.06;10475537;28;1997;-70
2023/05/25 14:37:04;;;;;;;;;;;;;;;21.43;49.29;96047.31;10481107;28;1864;-70
2023/05/25 14:42:04;;;;;;;;;;;;;;;21.43;49.28;96047.31;10479629;28;1867;-69
2023/05/25 14:47:05;;;;;;;;;;;;;;;21.43;49.15;96047.31;10478721;28;1905;-69
2023/05/25 14:52:05;;;;;;;;;;;;;;;21.43;49.32;96039.41;10473742;28;1671;-69
2023/05/25 14:57:05;;;;;;;;;;;;;;;21.42;49.29;96041.25;10476941;28;1863;-69
2023/05/25 15:02:05;;;;;;;;;;;;;;;21.43;49.14;96047.31;10477980;28;1887;-69
2023/05/25 15:07:06;;;;;;;;;;;;;;;21.42;49.28;96046.53;10474150;28;1906;-69
2023/05/25 15:12:06;;;;;;;;;;;;;;;21.42;49.01;96043.09;10477160;28;1916;-69
2023/05/25 15:17:07;;;;;;;;;;;;;;;21.42;49.06;96040.47;10478656;28;1828;-69
2023/05/25 15:22:07;;;;;;;;;;;;;;;21.42;49.07;96046.53;10475944;28;2047;-69
2023/05/25 15:27:08;;;;;;;;;;;;;;;21.40;49.26;96048.66;10478700;28;1906;-69
2023/05/25 15:32:11;;;;;;;;;;;;;;;21.42;49.08;96045.72;10461531;28;1931;-69
2023/05/25 15:37:12;;;;;;;;;;;;;;;21.41;49.12;96044.16;10467072;28;1852;-69
2023/05/25 15:42:12;;;;;;;;;;;;;;;21.39;49.22;96041.03;10471789;28;4586;-69
2023/05/25 15:47:12;;;;;;;;;;;;;;;21.41;49.11;96033.63;10474057;28;1910;-69
2023/05/25 15:52:12;;;;;;;;;;;;;;;21.40;49.10;96037.31;10463186;28;1891;-69
2023/05/25 15:57:13;;;;;;;;;;;;;;;21.41;48.95;96036.25;10474729;28;1886;-70
2023/05/25 16:02:13;;;;;;;;;;;;;;;21.42;49.07;96030.72;10484878;28;1886;-69
2023/05/25 16:07:13;;;;;;;;;;;;;;;21.39;48.85;96036.50;10483005;28;1965;-70
2023/05/25 16:12:14;;;;;;;;;;;;;;;21.39;49.08;96031.22;10480700;28;1831;-71
2023/05/25 16:17:14;;;;;;;;;;;;;;;21.41;48.87;96034.38;10468108;28;1991;-69
2023/05/25 17:31:21;;;;;;;;;;;;;;;21.66;49.64;96046.66;10576125;27;4167;-76
2023/05/25 17:36:22;;;;;;;;;;;;;;;21.79;49.30;96040.78;10522570;28;5423;-75
2023/05/25 17:41:22;;;;;;;;;;;;;;;21.78;49.09;96039.22;10526154;28;1776;-71
2023/05/25 17:46:22;;;;;;;;;;;;;;;21.80;49.30;96037.09;10527689;28;1910;-74
2023/05/25 17:51:22;;;;;;;;;;;;;;;21.77;49.17;96042.91;10531522;28;1493;-74
2023/05/25 17:56:23;;;;;;;;;;;;;;;21.72;48.17;96048.22;10519354;28;5497;-69
2023/05/25 18:01:23;;;;;;;;;;;;;;;21.64;48.00;96038.22;10522810;28;1466;-69
2023/05/25 18:06:23;;;;;;;;;;;;;;;21.58;47.71;96055.13;10533934;28;2008;-68
2023/05/25 18:11:24;;;;;;;;;;;;;;;21.52;46.99;96058.88;10521646;28;1637;-69
2023/05/25 18:16:25;;;;;;;;;;;;;;;21.47;47.20;96069.47;10524960;28;1618;-64
2023/05/25 18:21:25;;;;;;;;;;;;;;;21.43;47.15;96073.69;10513224;28;1920;-63
2023/05/25 18:26:25;;;;;;;;;;;;;;;21.37;47.07;96072.16;10525451;28;8744;-64
2023/05/25 18:31:26;;;;;;;;;;;;;;;21.35;47.21;96071.63;10492600;28;2008;-65
2023/05/25 18:36:26;;;;;;;;;;;;;;;21.32;47.18;96066.88;10493143;28;1876;-65
2023/05/25 18:41:26;;;;;;;;;;;;;;;21.29;46.91;96072.72;10495120;28;1924;-65
2023/05/25 18:46:27;;;;;;;;;;;;;;;21.32;47.04;96078.22;10496849;28;1898;-65
2023/05/25 18:51:27;;;;;;;;;;;;;;;21.28;47.12;96085.09;10490918;28;1884;-65
2023/05/25 18:56:28;;;;;;;;;;;;;;;21.31;47.42;96086.41;10492564;28;1992;-63
2023/05/25 19:01:28;;;;;;;;;;;;;;;21.32;47.61;96082.69;10492705;28;2292;-62
2023/05/25 19:06:28;;;;;;;;;;;;;;;21.32;47.96;96083.50;10496529;28;1953;-63
2023/05/25 19:11:28;;;;;;;;;;;;;;;21.35;47.94;96092.72;10494983;28;1903;-63
2023/05/25 19:16:29;;;;;;;;;;;;;;;21.37;48.00;96098.50;10486362;28;1915;-65
2023/05/25 19:21:30;;;;;;;;;;;;;;;21.37;48.23;96101.91;10484757;28;2176;-66
2023/05/25 19:26:30;;;;;;;;;;;;;;;21.38;48.22;96102.72;10488267;28;5499;-65
2023/05/25 19:31:30;;;;;;;;;;;;;;;21.39;47.92;96110.34;10488888;28;1919;-64
2023/05/25 19:36:31;;;;;;;;;;;;;;;21.39;47.90;96112.22;10489802;28;1912;-67
2023/05/25 19:41:31;;;;;;;;;;;;;;;21.40;47.96;96126.97;10494806;28;1860;-62
2023/05/25 19:46:32;;;;;;;;;;;;;;;21.40;48.07;96132.25;10481487;28;1940;-65
2023/05/25 19:51:32;;;;;;;;;;;;;;;21.40;47.82;96138.31;10485973;28;2050;-69
2023/05/25 19:56:33;;;;;;;;;;;;;;;21.39;47.80;96152.53;10490419;28;1863;-65
2023/05/25 20:01:34;;;;;;;;;;;;;;;21.38;47.77;96150.19;10486075;28;2332;-66
2023/05/25 20:06:36;;;;;;;;;;;;;;;21.38;47.83;96155.47;10486894;28;1906;-66
2023/05/25 20:11:36;;;;;;;;;;;;;;;21.36;48.00;96157.56;10488945;28;1821;-65
2023/05/25 20:16:37;;;;;;;;;;;;;;;21.34;47.74;96159.69;10489171;28;1575;-64
2023/05/25 20:21:37;;;;;;;;;;;;;;;21.33;47.68;96163.41;10482876;28;2376;-68
2023/05/25 20:26:37;;;;;;;;;;;;;;;21.32;48.10;96170.50;10491193;28;5872;-67
2023/05/25 20:31:39;;;;;;;;;;;;;;;21.31;47.74;96170.78;10484348;28;1950;-67
2023/05/25 20:36:39;;;;;;;;;;;;;;;21.30;47.99;96175.28;10486879;28;1884;-67
2023/05/25 20:41:39;;;;;;;;;;;;;;;21.30;47.90;96169.19;10484689;28;1872;-65
2023/05/25 20:46:40;;;;;;;;;;;;;;;21.30;48.08;96169.19;10481552;28;1973;-74
2023/05/25 20:51:40;;;;;;;;;;;;;;;21.28;48.13;96172.09;10482795;28;1975;-66
2023/05/25 20:56:41;;;;;;;;;;;;;;;21.26;48.46;96168.16;10481908;28;1946;-64
2023/05/25 21:01:42;;;;;;;;;;;;;;;21.27;49.04;96180.28;10485157;28;1964;-69
2023/05/25 21:06:43;;;;;;;;;;;;;;;21.29;48.96;96178.94;10482502;28;1902;-66
2023/05/25 21:11:44;;;;;;;;;;;;;;;21.29;49.54;96172.91;10482857;28;1931;-68
2023/05/25 21:16:44;;;;;;;;;;;;;;;21.32;49.73;96180.25;10479196;28;2302;-68
2023/05/25 21:21:44;;;;;;;;;;;;;;;21.32;49.62;96182.91;10485611;28;2151;-68
2023/05/25 21:26:45;;;;;;;;;;;;;;;21.31;50.09;96184.75;10482832;28;5663;-67
2023/05/25 21:31:45;;;;;;;;;;;;;;;21.31;49.73;96182.09;10484353;28;1955;-67
2023/05/25 21:36:45;;;;;;;;;;;;;;;21.32;49.73;96178.44;10483886;28;1971;-67
2023/05/25 21:41:46;;;;;;;;;;;;;;;21.32;49.78;96181.06;10483111;28;1908;-68
2023/05/25 21:46:46;;;;;;;;;;;;;;;21.31;49.78;96176.06;10486473;28;1911;-68
2023/05/25 21:51:46;;;;;;;;;;;;;;;21.31;49.79;96182.09;10482432;28;1856;-68
2023/05/25 21:56:46;;;;;;;;;;;;;;;21.31;49.43;96182.09;10478946;28;1868;-68
2023/05/25 22:01:47;;;;;;;;;;;;;;;21.31;49.39;96186.63;10483846;28;1921;-68
2023/05/25 22:06:47;;;;;;;;;;;;;;;21.31;49.43;96179.47;10492234;28;1920;-67
2023/05/25 22:11:47;;;;;;;;;;;;;;;21.29;49.41;96181.59;10487789;28;2431;-68
2023/05/25 22:16:47;;;;;;;;;;;;;;;21.29;49.44;96178.19;10489410;28;1782;-68
2023/05/25 22:21:48;;;;;;;;;;;;;;;21.29;49.28;96175.53;10492576;28;1958;-68
2023/05/25 22:26:48;;;;;;;;;;;;;;;21.28;49.07;96181.84;10489362;28;5734;-68
2023/05/25 22:31:49;;;;;;;;;;;;;;;21.27;49.00;96181.06;10496618;28;1868;-68
2023/05/25 22:36:49;;;;;;;;;;;;;;;21.25;48.74;96171.84;10492350;28;1842;-67
2023/05/25 22:41:50;;;;;;;;;;;;;;;21.25;48.92;96169.19;10492269;28;1833;-67
2023/05/25 22:46:50;;;;;;;;;;;;;;;21.24;48.87;96170.28;10495879;28;1890;-67
2023/05/25 22:51:50;;;;;;;;;;;;;;;21.24;48.84;96172.91;10489810;28;1900;-67
2023/05/25 22:56:50;;;;;;;;;;;;;;;21.22;48.92;96161.84;10492201;28;1940;-67
2023/05/25 23:01:51;;;;;;;;;;;;;;;21.21;48.74;96171.59;10495459;28;1891;-67
2023/05/25 23:06:51;;;;;;;;;;;;;;;21.21;48.50;96165.50;10487605;28;1914;-67
2023/05/25 23:11:51;;;;;;;;;;;;;;;21.19;48.65;96162.34;10487086;28;2399;-67
2023/05/25 23:16:51;;;;;;;;;;;;;;;21.19;48.65;96159.72;10492205;28;1877;-67
2023/05/25 23:21:53;;;;;;;;;;;;;;;21.18;48.40;96156.31;10484258;28;1892;-66
2023/05/25 23:26:53;;;;;;;;;;;;;;;21.18;48.44;96161.59;10487515;28;5769;-67
2023/05/25 23:31:53;;;;;;;;;;;;;;;21.17;48.36;96153.94;10492043;28;1923;-67
2023/05/25 23:36:54;;;;;;;;;;;;;;;21.16;48.32;96161.06;10482319;28;1967;-67
2023/05/25 23:41:54;;;;;;;;;;;;;;;21.16;48.34;96158.44;10493447;28;1900;-67
2023/05/25 23:46:54;;;;;;;;;;;;;;;21.15;48.20;96159.47;10484549;28;1943;-67
2023/05/25 23:51:55;;;;;;;;;;;;;;;21.15;48.15;96156.03;10484939;28;1864;-67
2023/05/25 23:56:55;;;;;;;;;;;;;;;21.14;47.94;96157.91;10485202;28;1990;-67
